Time;durP1;ratioP1;P1;durP2;ratioP2;P2;SDS_P1;SDS_P2;PMS_P1;PMS_P2;Temp;Humidity;BMP_temperature;BMP_pressure;BME280_temperature;BME280_humidity;BME280_pressure;Samples;Min_cycle;Max_cycle;Signal;HPM_P1;HPM_P2
2022/09/07 00:00:50;;;;;;;2.28;2.00;;;;;;;12.30;100.00;91413.28;5034617;28;20057;-66
2022/09/07 00:03:16;;;;;;;2.35;2.15;;;;;;;12.34;100.00;91410.81;5034491;28;20048;-66
2022/09/07 00:05:44;;;;;;;2.55;2.20;;;;;;;12.33;100.00;91408.44;5034385;28;20057;-66
2022/09/07 00:08:10;;;;;;;2.33;2.08;;;;;;;12.30;100.00;91407.94;5034456;28;20129;-66
2022/09/07 00:10:36;;;;;;;2.40;2.20;;;;;;;12.26;100.00;91400.88;5034230;28;20029;-66
2022/09/07 00:13:01;;;;;;;2.50;2.30;;;;;;;12.32;100.00;91410.34;5034255;28;20022;-66
2022/09/07 00:15:27;;;;;;;2.55;2.35;;;;;;;12.28;100.00;91410.13;5034323;28;20022;-66
2022/09/07 00:17:52;;;;;;;3.65;2.70;;;;;;;12.22;100.00;91410.59;5034331;28;20030;-66
2022/09/07 00:20:18;;;;;;;2.28;1.90;;;;;;;12.22;100.00;91410.59;5034125;28;20071;-66
2022/09/07 00:22:45;;;;;;;2.53;2.33;;;;;;;12.12;100.00;91410.84;5034113;28;20036;-66
2022/09/07 00:25:10;;;;;;;2.97;2.70;;;;;;;12.06;100.00;91415.53;5034194;28;20037;-66
2022/09/07 00:27:36;;;;;;;3.13;2.83;;;;;;;11.92;100.00;91406.81;5034206;28;20029;-66
2022/09/07 00:30:02;;;;;;;5.07;3.90;;;;;;;11.82;100.00;91407.81;5034023;28;20097;-66
2022/09/07 00:32:27;;;;;;;4.68;3.85;;;;;;;11.77;100.00;91413.25;5033920;28;20034;-66
2022/09/07 00:34:53;;;;;;;3.72;3.33;;;;;;;11.72;100.00;91417.94;5033988;28;20902;-65
2022/09/07 00:37:18;;;;;;;3.95;3.47;;;;;;;11.65;100.00;91427.13;5033941;28;20040;-66
2022/09/07 00:39:44;;;;;;;4.40;3.83;;;;;;;11.40;100.00;91419.72;5032579;28;20033;-66
2022/09/07 00:42:09;;;;;;;5.32;4.13;;;;;;;11.29;100.00;91426.38;5033784;28;20052;-66
2022/09/07 00:44:41;;;;;;;5.90;4.68;;;;;;;11.10;100.00;91421.19;5033814;28;20502;-65
2022/09/07 00:47:21;;;;;;;4.65;3.95;;;;;;;10.94;100.00;91422.59;5033830;28;20471;-66
2022/09/07 00:49:53;;;;;;;4.90;4.20;;;;;;;10.86;100.00;91421.41;5033720;28;20091;-66
2022/09/07 00:52:21;;;;;;;8.27;4.72;;;;;;;10.86;100.00;91416.09;5033505;28;20034;-66
2022/09/07 00:54:52;;;;;;;4.75;4.00;;;;;;;10.90;100.00;91421.63;5033571;28;20029;-66
2022/09/07 00:57:18;;;;;;;5.45;4.45;;;;;;;10.91;100.00;91429.31;5033613;28;20466;-66
2022/09/07 00:59:48;;;;;;;6.03;4.68;;;;;;;10.93;100.00;91426.34;5033564;28;20049;-66
2022/09/07 01:02:16;;;;;;;5.18;4.20;;;;;;;10.89;100.00;91420.03;5033334;28;20168;-66
2022/09/07 01:04:48;;;;;;;4.65;4.13;;;;;;;10.89;100.00;91420.84;5033158;28;20065;-66
2022/09/07 01:07:13;;;;;;;4.72;4.22;;;;;;;10.91;100.00;91425.84;5033337;28;20025;-66
2022/09/07 01:09:40;;;;;;;6.35;4.63;;;;;;;10.75;100.00;91409.41;5033340;28;20511;-66
2022/09/07 01:12:06;;;;;;;6.72;4.57;;;;;;;10.71;100.00;91413.72;5033132;28;20469;-66
2022/09/07 01:14:35;;;;;;;5.18;4.18;;;;;;;10.72;100.00;91415.31;5033206;28;20165;-66
2022/09/07 01:17:04;;;;;;;6.35;4.60;;;;;;;10.54;100.00;91403.69;5033195;28;20492;-66
2022/09/07 01:20:03;;;;;;;6.47;4.68;;;;;;;10.45;100.00;91406.25;5033141;28;20048;-66
2022/09/07 01:22:51;;;;;;;6.25;5.07;;;;;;;10.38;100.00;91405.06;5032961;28;20033;-66
2022/09/07 01:25:45;;;;;;;5.45;4.45;;;;;;;10.29;100.00;91402.31;5013632;28;20080;-65
2022/09/07 01:28:28;;;;;;;6.13;4.53;;;;;;;10.21;100.00;91403.00;5032975;28;20033;-65
2022/09/07 01:30:58;;;;;;;5.63;4.38;;;;;;;10.13;100.00;91403.66;5032950;28;20311;-66
2022/09/07 01:33:41;;;;;;;8.00;4.88;;;;;;;10.11;100.00;91405.81;5032799;28;20120;-66
2022/09/07 01:36:14;;;;;;;6.07;4.80;;;;;;;10.12;100.00;91402.88;5032845;28;20025;-66
2022/09/07 01:38:52;;;;;;;5.65;4.57;;;;;;;10.19;100.00;91410.44;5032751;28;20492;-66
2022/09/07 01:41:26;;;;;;;7.05;4.97;;;;;;;10.21;100.00;91403.00;5032629;28;20036;-66
2022/09/07 01:44:00;;;;;;;11.93;5.00;;;;;;;10.26;100.00;91400.25;5032608;28;20056;-66
2022/09/07 01:46:34;;;;;;;6.68;4.68;;;;;;;10.31;100.00;91404.69;5032693;28;20168;-66
2022/09/07 01:49:05;;;;;;;;;;;;;;;10.24;100.00;91401.59;5033098;28;20056;-67
2022/09/07 01:51:33;;;;;;;8.43;4.07;;;;;;;10.18;100.00;91406.22;5032644;28;20361;-67
2022/09/07 01:54:12;;;;;;;5.80;4.28;;;;;;;10.28;100.00;91399.97;5032502;28;20480;-67
2022/09/07 01:56:42;;;;;;;6.53;4.18;;;;;;;10.26;100.00;91392.28;5032637;28;20506;-67
2022/09/07 01:59:13;;;;;;;6.75;4.13;;;;;;;10.23;100.00;91390.19;5032123;28;20039;-67
2022/09/07 02:01:45;;;;;;;4.60;3.63;;;;;;;10.22;100.00;91391.25;5032393;28;20107;-66
2022/09/07 02:06:55;;;;;;;5.38;4.18;;;;;;;9.93;100.00;91388.03;5031055;28;20060;-67
2022/09/07 02:09:42;;;;;;;5.78;4.05;;;;;;;9.84;100.00;91386.06;5032345;28;20104;-67
2022/09/07 02:12:35;;;;;;;6.60;4.32;;;;;;;9.71;100.00;91386.81;5032597;28;20103;-67
2022/09/07 02:15:09;;;;;;;7.40;4.87;;;;;;;9.64;100.00;91382.97;5032277;28;20429;-67
2022/09/07 02:17:42;;;;;;;7.40;4.60;;;;;;;9.57;100.00;91380.69;5032281;28;20056;-67
2022/09/07 02:20:14;;;;;;;5.90;4.80;;;;;;;9.55;100.00;91385.50;5032123;28;20045;-67
2022/09/07 02:22:45;;;;;;;12.88;4.80;;;;;;;9.57;100.00;91396.63;5032136;28;20418;-68
2022/09/07 02:25:19;;;;;;;5.25;4.45;;;;;;;9.54;100.00;91397.22;5032017;28;20033;-67
2022/09/07 02:27:57;;;;;;;7.85;5.78;;;;;;;9.56;100.00;91392.38;5032058;28;20049;-67
2022/09/07 02:30:23;;;;;;;8.05;4.82;;;;;;;9.56;100.00;91384.44;5031895;28;20060;-67
2022/09/07 02:32:49;;;;;;;10.30;5.60;;;;;;;9.64;100.00;91394.41;5031959;28;20026;-65
2022/09/07 02:35:15;;;;;;;6.50;4.90;;;;;;;9.60;100.00;91385.41;5031760;28;20035;-66
2022/09/07 02:37:42;;;;;;;14.45;5.68;;;;;;;9.68;100.00;91387.41;5031881;28;20090;-66
2022/09/07 02:40:08;;;;;;;7.32;5.00;;;;;;;9.68;100.00;91384.75;5031752;28;20087;-66
2022/09/07 02:42:35;;;;;;;7.55;4.82;;;;;;;9.63;100.00;91390.16;5031736;28;20088;-66
2022/09/07 02:45:04;;;;;;;8.20;5.03;;;;;;;9.81;100.00;91383.22;5031786;28;20490;-66
2022/09/07 02:48:08;;;;;;;6.38;4.88;;;;;;;9.98;100.00;91388.75;5031715;28;20040;-66
2022/09/07 02:51:04;;;;;;;7.03;4.97;;;;;;;9.92;100.00;91392.56;5031720;28;20053;-66
2022/09/07 02:53:52;;;;;;;5.68;4.60;;;;;;;9.80;100.00;91387.75;5031589;28;20310;-66
2022/09/07 02:56:20;;;;;;;4.80;4.07;;;;;;;9.66;100.00;91389.59;5031445;28;20104;-66
2022/09/07 02:58:58;;;;;;;4.13;3.72;;;;;;;9.55;100.00;91390.81;5031548;28;20059;-66
2022/09/07 03:01:33;;;;;;;4.75;4.30;;;;;;;9.45;100.00;91394.41;5013672;28;20116;-66
2022/09/07 03:04:46;;;;;;;12.20;3.75;;;;;;;9.36;100.00;91401.47;5031451;28;20100;-66
2022/09/07 03:07:37;;;;;;;4.97;4.22;;;;;;;9.26;100.00;91394.44;4977657;28;20074;-66
2022/09/07 03:10:05;;;;;;;7.38;4.65;;;;;;;9.26;100.00;91391.00;5023522;28;20038;-66
2022/09/07 03:12:43;;;;;;;6.82;4.40;;;;;;;9.19;100.00;91393.25;5031322;28;20407;-66
2022/09/07 03:15:10;;;;;;;7.93;4.85;;;;;;;9.19;100.00;91394.03;5031196;28;20026;-66
2022/09/07 03:17:36;;;;;;;6.60;4.68;;;;;;;9.18;100.00;91395.09;5031336;28;20105;-66
2022/09/07 03:20:02;;;;;;;5.57;4.65;;;;;;;9.14;100.00;91407.34;5031327;28;20033;-66
2022/09/07 03:22:27;;;;;;;7.20;5.30;;;;;;;9.11;100.00;91396.53;5031107;28;20490;-66
2022/09/07 03:24:53;;;;;;;6.28;5.38;;;;;;;9.07;100.00;91403.50;5031115;28;20076;-66
2022/09/07 03:27:18;;;;;;;6.35;4.80;;;;;;;9.10;100.00;91401.06;5031163;28;20122;-66
2022/09/07 03:29:44;;;;;;;6.55;4.88;;;;;;;9.03;100.00;91408.59;5031140;28;20090;-66
2022/09/07 03:32:09;;;;;;;6.03;4.55;;;;;;;9.09;100.00;91401.34;5031167;28;20022;-66
2022/09/07 03:34:35;;;;;;;5.97;4.95;;;;;;;9.03;100.00;91405.16;5030974;28;20021;-66
2022/09/07 03:37:00;;;;;;;7.95;5.20;;;;;;;8.99;100.00;91404.91;5031095;28;20030;-66
2022/09/07 03:39:26;;;;;;;7.68;5.40;;;;;;;9.02;100.00;91398.28;5031088;28;20022;-66
2022/09/07 03:41:52;;;;;;;5.22;4.43;;;;;;;9.04;100.00;91412.81;5030997;28;20029;-66
2022/09/07 03:44:17;;;;;;;9.82;5.03;;;;;;;9.05;100.00;91409.09;5030855;28;20021;-66
2022/09/07 03:46:43;;;;;;;7.47;4.90;;;;;;;9.11;100.00;91407.94;5030765;28;20159;-66
2022/09/07 03:49:08;;;;;;;7.20;5.72;;;;;;;9.07;100.00;91409.59;5030940;28;20107;-66
2022/09/07 03:51:34;;;;;;;9.68;5.28;;;;;;;9.06;100.00;91409.88;5030906;28;20038;-66
2022/09/07 03:53:59;;;;;;;4.53;4.07;;;;;;;9.07;100.00;91409.59;5030816;28;20033;-66
2022/09/07 03:56:25;;;;;;;7.32;4.50;;;;;;;9.08;100.00;91419.13;5031028;28;20047;-66
2022/09/07 03:58:52;;;;;;;4.22;3.75;;;;;;;9.06;100.00;91413.31;5031233;28;20562;-66
2022/09/07 04:01:21;;;;;;;7.45;4.90;;;;;;;9.03;100.00;91408.59;5030844;28;20071;-66
2022/09/07 04:03:47;;;;;;;7.40;5.50;;;;;;;9.01;100.00;91408.09;5030840;28;20035;-66
2022/09/07 04:06:13;;;;;;;9.55;5.72;;;;;;;9.06;100.00;91412.53;5030570;28;20120;-66
2022/09/07 04:08:39;;;;;;;6.70;5.60;;;;;;;9.12;100.00;91414.81;5030795;28;20049;-66
2022/09/07 04:11:07;;;;;;;7.78;5.78;;;;;;;9.18;100.00;91412.91;5030679;28;20095;-66
2022/09/07 04:13:34;;;;;;;8.90;5.88;;;;;;;9.18;100.00;91420.88;5030711;28;20033;-66
2022/09/07 04:16:09;;;;;;;8.15;5.88;;;;;;;9.25;100.00;91416.75;5030526;28;20034;-66
2022/09/07 04:18:35;;;;;;;5.53;4.63;;;;;;;9.32;100.00;91421.72;5030718;28;20040;-66
2022/09/07 04:21:00;;;;;;;6.55;5.13;;;;;;;9.43;100.00;91425.78;5032122;28;20160;-66
2022/09/07 04:23:26;;;;;;;5.10;4.60;;;;;;;9.53;100.00;91419.53;5034402;28;20104;-66
2022/09/07 04:25:52;;;;;;;8.00;5.20;;;;;;;9.49;100.00;91416.69;5034255;28;20029;-66
2022/09/07 04:28:19;;;;;;;6.28;5.10;;;;;;;9.54;100.00;91421.13;5034222;28;20123;-66
2022/09/07 04:30:46;;;;;;;6.30;4.70;;;;;;;9.63;100.00;91422.03;5034259;28;20084;-66
2022/09/07 04:33:12;;;;;;;4.78;3.97;;;;;;;9.72;100.00;91420.28;5034214;28;20029;-66
2022/09/07 04:35:39;;;;;;;5.63;4.00;;;;;;;9.69;100.00;91417.44;5034060;28;20037;-66
2022/09/07 04:38:05;;;;;;;7.40;4.72;;;;;;;9.88;100.00;91424.25;5034194;28;20034;-66
2022/09/07 04:40:31;;;;;;;4.60;4.00;;;;;;;10.14;100.00;91426.50;5033950;28;20037;-66
2022/09/07 04:42:57;;;;;;;5.25;4.50;;;;;;;10.66;100.00;91413.84;5034004;28;20026;-66
2022/09/07 04:45:23;;;;;;;6.35;4.55;;;;;;;11.76;100.00;91410.91;5033860;28;20495;-66
2022/09/07 04:47:49;;;;;;;5.65;4.50;;;;;;;12.88;100.00;91420.25;5033889;28;20053;-66
2022/09/07 04:50:16;;;;;;;5.60;4.28;;;;;;;12.69;100.00;91406.38;5033823;28;20033;-66
2022/09/07 04:52:42;;;;;;;5.45;4.13;;;;;;;12.74;100.00;91414.25;5033836;28;20029;-66
2022/09/07 04:55:08;;;;;;;3.80;3.33;;;;;;;12.10;100.00;91413.81;5033701;28;20087;-66
2022/09/07 04:57:34;;;;;;;5.05;4.07;;;;;;;12.07;100.00;91419.75;5033929;28;20112;-66
2022/09/07 05:00:00;;;;;;;4.65;4.13;;;;;;;13.12;100.00;91408.41;5033655;28;20414;-67
2022/09/07 05:02:25;;;;;;;4.53;4.03;;;;;;;14.73;100.00;91402.75;5033548;28;20080;-67
2022/09/07 05:04:51;;;;;;;4.28;3.88;;;;;;;16.98;100.00;91410.56;5033296;28;20040;-66
2022/09/07 05:07:16;;;;;;;4.47;4.07;;;;;;;19.05;83.33;91411.06;5033512;28;20030;-66
2022/09/07 05:09:42;;;;;;;5.40;4.35;;;;;;;20.43;70.42;91413.38;5033515;28;20083;-66
2022/09/07 05:12:07;;;;;;;4.00;3.60;;;;;;;21.10;63.10;91416.50;5033451;28;20021;-66
2022/09/07 05:14:33;;;;;;;4.15;3.58;;;;;;;21.50;60.54;91409.84;5033213;28;20029;-67
2022/09/07 05:16:59;;;;;;;3.88;3.47;;;;;;;20.85;61.75;91418.81;5033599;28;20048;-66
2022/09/07 05:19:25;;;;;;;3.78;3.38;;;;;;;18.92;67.55;91420.34;5033329;28;20029;-66
2022/09/07 05:21:51;;;;;;;4.22;3.70;;;;;;;18.08;77.74;91426.56;5033236;28;20034;-66
2022/09/07 05:24:17;;;;;;;5.03;3.55;;;;;;;20.45;70.34;91421.91;5033179;28;20033;-66
2022/09/07 05:26:42;;;;;;;6.13;3.50;;;;;;;22.39;60.21;91421.94;5033195;28;20060;-66
2022/09/07 05:29:08;;;;;;;4.72;3.30;;;;;;;23.64;55.46;91434.09;5033142;28;20418;-66
2022/09/07 05:31:34;;;;;;;5.43;3.20;;;;;;;24.18;53.34;91420.50;5032486;28;20537;-66
2022/09/07 05:34:01;;;;;;;4.03;3.17;;;;;;;25.82;49.35;91425.66;5032340;28;20025;-67
2022/09/07 05:36:28;;;;;;;5.05;3.42;;;;;;;25.88;48.39;91418.66;5033222;28;20076;-66
2022/09/07 05:38:54;;;;;;;4.00;3.20;;;;;;;27.21;45.89;91430.75;5032959;28;20045;-66
2022/09/07 05:41:23;;;;;;;3.85;3.22;;;;;;;28.47;43.11;91415.72;5032833;28;20045;-67
2022/09/07 05:43:49;;;;;;;3.22;2.92;;;;;;;28.39;42.74;91428.69;5033130;28;20045;-67
2022/09/07 05:46:15;;;;;;;3.67;3.28;;;;;;;26.95;45.08;91432.00;5032464;28;20096;-67
2022/09/07 05:48:42;;;;;;;4.45;3.58;;;;;;;27.56;44.23;91425.03;5032845;28;20025;-67
2022/09/07 05:51:09;;;;;;;3.58;3.28;;;;;;;28.87;41.43;91423.09;5032744;28;20026;-67
2022/09/07 05:53:39;;;;;;;3.88;3.47;;;;;;;28.71;41.54;91431.06;5032750;28;20064;-67
2022/09/07 05:56:05;;;;;;;3.65;3.35;;;;;;;28.78;41.19;91419.28;5032433;28;20035;-67
2022/09/07 05:58:32;;;;;;;4.93;3.67;;;;;;;29.27;39.95;91412.41;5032609;28;20026;-67
2022/09/07 06:01:09;;;;;;;4.88;3.60;;;;;;;27.59;41.69;91418.78;5032438;28;20021;-67
2022/09/07 06:03:36;;;;;;;5.28;3.67;;;;;;;28.20;41.93;91419.06;5032481;28;20108;-67
2022/09/07 06:06:14;;;;;;;7.72;5.35;;;;;;;28.68;41.44;91414.69;5032203;28;20057;-67
2022/09/07 06:08:47;;;;;;;5.20;4.70;;;;;;;28.24;42.36;91419.03;5032389;28;20021;-67
2022/09/07 06:11:16;;;;;;;7.93;5.05;;;;;;;28.46;42.82;91416.91;5032230;28;20495;-67
2022/09/07 06:13:41;;;;;;;5.80;4.30;;;;;;;28.28;42.21;91426.06;5032059;28;20042;-67
2022/09/07 06:16:09;;;;;;;5.70;4.45;;;;;;;27.01;43.69;91433.97;5032096;28;20028;-67
2022/09/07 06:18:38;;;;;;;4.22;3.65;;;;;;;26.05;46.36;91422.53;5032165;28;20082;-66
2022/09/07 06:21:22;;;;;;;5.25;4.10;;;;;;;28.35;43.56;91430.69;5014285;28;20033;-66
2022/09/07 06:23:49;;;;;;;8.50;4.95;;;;;;;29.29;40.68;91437.44;5031999;28;20064;-68
2022/09/07 06:26:16;;;;;;;13.43;5.13;;;;;;;31.19;37.94;91433.91;5032060;28;20037;-67
2022/09/07 06:28:44;;;;;;;5.32;4.80;;;;;;;31.04;37.21;91434.59;5032074;28;20026;-67
2022/09/07 06:31:12;;;;;;;6.60;4.75;;;;;;;30.97;39.17;91430.03;5031971;28;20090;-67
2022/09/07 06:33:39;;;;;;;4.60;4.10;;;;;;;31.07;38.37;91434.50;5031797;28;20025;-67
2022/09/07 06:36:10;;;;;;;4.63;4.13;;;;;;;30.33;39.38;91429.22;5031792;28;20033;-67
2022/09/07 06:38:37;;;;;;;6.95;4.35;;;;;;;29.65;39.81;91434.22;5031766;28;20034;-66
2022/09/07 06:41:16;;;;;;;6.20;3.97;;;;;;;29.74;39.77;91437.22;5031802;28;20064;-67
2022/09/07 06:43:42;;;;;;;7.32;4.70;;;;;;;30.09;38.93;91433.94;5031588;28;20457;-67
2022/09/07 06:46:08;;;;;;;6.05;3.92;;;;;;;28.68;41.00;91431.13;5031604;28;20482;-67
2022/09/07 06:48:33;;;;;;;6.38;3.97;;;;;;;27.46;43.95;91434.13;5031636;28;20026;-66
2022/09/07 06:51:13;;;;;;;4.97;3.70;;;;;;;28.82;42.21;91429.00;5031594;28;20120;-67
2022/09/07 06:53:38;;;;;;;5.55;4.00;;;;;;;29.85;40.76;91432.34;5031506;28;20052;-66
2022/09/07 06:56:07;;;;;;;6.78;3.67;;;;;;;31.71;38.37;91440.66;5031521;28;20072;-67
2022/09/07 06:58:33;;;;;;;3.90;3.60;;;;;;;32.64;35.69;91437.25;5031495;28;20033;-67
2022/09/07 07:01:03;;;;;;;3.25;2.92;;;;;;;30.40;38.92;91436.56;5031458;28;20021;-67
2022/09/07 07:03:29;;;;;;;3.72;2.92;;;;;;;32.55;36.95;91445.38;5031416;28;20029;-67
2022/09/07 07:05:55;;;;;;;2.35;2.15;;;;;;;33.16;34.99;91435.50;5031111;28;20448;-67
2022/09/07 07:08:23;;;;;;;4.78;2.58;;;;;;;33.79;35.19;91434.84;5031351;28;20026;-67
2022/09/07 07:10:49;;;;;;;4.68;2.80;;;;;;;34.76;33.57;91444.38;5031012;28;20046;-67
2022/09/07 07:13:16;;;;;;;4.32;2.90;;;;;;;34.57;33.03;91435.16;5031381;28;20040;-67
2022/09/07 07:15:41;;;;;;;3.22;2.58;;;;;;;33.11;35.77;91438.78;5031460;28;20148;-67
2022/09/07 07:18:08;;;;;;;3.20;2.67;;;;;;;34.64;33.86;91437.66;5031523;28;20487;-67
2022/09/07 07:20:35;;;;;;;3.75;3.00;;;;;;;34.45;33.86;91441.47;5030820;28;20095;-67
2022/09/07 07:23:01;;;;;;;3.53;3.13;;;;;;;33.55;34.40;91437.13;5030917;28;20039;-67
2022/09/07 07:25:26;;;;;;;3.22;2.90;;;;;;;32.88;35.38;91440.56;5031091;28;20112;-67
2022/09/07 07:27:52;;;;;;;5.85;2.45;;;;;;;32.34;36.76;91438.41;5031200;28;20111;-67
2022/09/07 07:30:19;;;;;;;3.65;3.08;;;;;;;32.05;37.28;91441.06;5031143;28;20025;-67
2022/09/07 07:32:45;;;;;;;5.40;3.47;;;;;;;32.91;35.15;91434.19;5031209;28;20039;-67
2022/09/07 07:35:12;;;;;;;2.78;2.50;;;;;;;32.16;36.49;91440.78;5031054;28;20033;-67
2022/09/07 07:37:39;;;;;;;2.53;2.33;;;;;;;32.67;36.16;91441.91;5031007;28;20029;-67
2022/09/07 07:40:07;;;;;;;2.42;2.22;;;;;;;31.12;37.47;91436.00;5031099;28;20041;-67
2022/09/07 07:42:34;;;;;;;2.58;2.08;;;;;;;33.17;35.86;91428.75;5031264;28;20088;-67
2022/09/07 07:45:03;;;;;;;2.45;2.22;;;;;;;33.67;35.82;91435.59;5030893;28;20448;-67
2022/09/07 07:47:28;;;;;;;4.80;2.92;;;;;;;35.70;33.66;91444.19;5031013;28;20100;-67
2022/09/07 07:49:53;;;;;;;2.30;2.10;;;;;;;36.36;32.09;91449.56;5030893;28;20116;-67
2022/09/07 07:52:19;;;;;;;3.17;2.25;;;;;;;37.23;31.12;91450.31;5030932;28;20487;-67
2022/09/07 07:54:44;;;;;;;2.60;2.40;;;;;;;37.51;30.21;91451.84;5030877;28;20087;-67
2022/09/07 07:57:11;;;;;;;2.83;2.47;;;;;;;34.62;32.31;91445.63;5034377;28;20027;-67
2022/09/07 07:59:37;;;;;;;2.40;2.20;;;;;;;34.77;33.17;91449.44;5035099;28;20037;-67
2022/09/07 08:02:04;;;;;;;1.70;1.60;;;;;;;35.66;32.51;91459.34;5034736;28;20033;-67
2022/09/07 08:04:31;;;;;;;2.22;2.00;;;;;;;36.09;31.78;91454.97;5034427;28;20061;-67
2022/09/07 08:06:56;;;;;;;3.42;2.03;;;;;;;35.74;31.91;91455.09;5035024;28;20398;-67
2022/09/07 08:09:22;;;;;;;2.13;1.92;;;;;;;36.48;31.39;91448.69;5034701;28;20487;-67
2022/09/07 08:11:48;;;;;;;3.08;2.15;;;;;;;35.87;31.14;91447.53;5034611;28;20493;-67
2022/09/07 08:14:13;;;;;;;1.90;1.80;;;;;;;34.82;32.32;91453.63;5034451;28;20030;-67
2022/09/07 08:16:41;;;;;;;2.80;1.90;;;;;;;35.03;32.34;91454.91;5034479;28;20458;-67
2022/09/07 08:19:07;;;;;;;3.55;2.45;;;;;;;34.97;32.61;91449.19;5034349;28;20021;-67
2022/09/07 08:21:33;;;;;;;3.28;2.20;;;;;;;35.61;32.07;91452.41;5034579;28;20026;-67
2022/09/07 08:23:58;;;;;;;2.20;2.00;;;;;;;35.80;31.55;91453.28;5034216;28;20472;-67
2022/09/07 08:26:24;;;;;;;2.63;1.90;;;;;;;35.71;30.98;91444.94;5034289;28;20033;-67
2022/09/07 08:28:50;;;;;;;2.28;1.60;;;;;;;34.44;32.34;91439.94;5034346;28;20033;-67
2022/09/07 08:31:16;;;;;;;3.08;1.52;;;;;;;35.58;31.37;91438.72;5034493;28;20483;-67
2022/09/07 08:33:42;;;;;;;2.22;1.67;;;;;;;36.17;31.41;91443.19;5034055;28;20026;-67
2022/09/07 08:36:17;;;;;;;1.50;1.40;;;;;;;35.62;31.08;91447.66;5016372;28;20037;-67
2022/09/07 08:38:43;;;;;;;1.85;1.60;;;;;;;35.65;30.80;91441.22;5034092;28;20025;-67
2022/09/07 08:41:22;;;;;;;2.25;1.83;;;;;;;35.50;31.68;91434.66;5034011;28;20029;-67
2022/09/07 08:43:57;;;;;;;5.90;1.75;;;;;;;38.12;29.51;91443.53;5033862;28;20021;-67
2022/09/07 08:46:31;;;;;;;1.77;1.63;;;;;;;38.25;29.18;91436.56;5034253;28;20040;-67
2022/09/07 08:48:59;;;;;;;1.80;1.70;;;;;;;36.81;29.73;91437.06;5033916;28;20107;-67
2022/09/07 08:51:40;;;;;;;2.55;1.73;;;;;;;37.48;29.31;91436.13;5034097;28;20112;-67
2022/09/07 08:54:05;;;;;;;2.58;1.55;;;;;;;37.01;29.66;91431.81;5033712;28;20029;-67
2022/09/07 08:56:36;;;;;;;1.50;1.40;;;;;;;37.46;29.17;91435.84;5033783;28;20036;-67
2022/09/07 08:59:25;;;;;;;1.75;1.65;;;;;;;36.88;29.64;91433.97;5033741;28;20037;-67
2022/09/07 09:01:51;;;;;;;3.28;1.95;;;;;;;36.07;30.92;91424.22;5033619;28;20025;-67
2022/09/07 09:04:24;;;;;;;2.03;1.85;;;;;;;35.74;30.54;91421.13;5033611;28;20029;-67
2022/09/07 09:07:15;;;;;;;2.50;1.90;;;;;;;36.76;30.97;91432.09;5033574;28;20055;-67
2022/09/07 09:10:07;;;;;;;4.32;2.60;;;;;;;37.41;29.99;91431.69;5033420;28;20041;-67
2022/09/07 09:12:45;;;;;;;2.38;2.13;;;;;;;39.02;29.40;91424.84;5033376;28;20044;-67
2022/09/07 09:15:50;;;;;;;2.63;2.42;;;;;;;37.82;28.39;91415.56;5033589;28;20033;-67
2022/09/07 09:18:43;;;;;;;2.33;1.95;;;;;;;36.41;29.04;91423.25;5033516;28;20029;-67
2022/09/07 09:21:15;;;;;;;2.90;2.63;;;;;;;36.48;29.77;91417.44;5033281;28;20030;-68
2022/09/07 09:23:42;;;;;;;4.88;3.13;;;;;;;34.54;33.00;91417.44;5033382;28;20037;-68
2022/09/07 09:26:21;;;;;;;2.70;2.42;;;;;;;32.26;35.17;91417.75;5033200;28;20510;-67
2022/09/07 09:28:47;;;;;;;2.67;2.47;;;;;;;31.68;34.82;91414.00;5033208;28;20033;-67
2022/09/07 09:31:17;;;;;;;2.33;2.13;;;;;;;32.78;33.21;91414.03;5033113;28;20453;-67
2022/09/07 09:33:42;;;;;;;2.15;2.03;;;;;;;32.26;33.96;91408.69;5033306;28;20029;-67
2022/09/07 09:36:24;;;;;;;2.28;2.08;;;;;;;32.17;34.51;91412.06;5033023;28;20028;-67
2022/09/07 09:38:50;;;;;;;3.70;2.50;;;;;;;33.61;34.12;91413.28;5032810;28;20514;-67
2022/09/07 09:41:16;;;;;;;2.97;2.45;;;;;;;33.70;32.68;91413.41;5032920;28;20106;-67
2022/09/07 09:43:51;;;;;;;2.35;2.15;;;;;;;34.07;33.43;91400.06;5032834;28;20036;-67
2022/09/07 09:46:24;;;;;;;2.55;2.28;;;;;;;36.49;29.38;91411.44;5032873;28;20053;-67
2022/09/07 09:49:03;;;;;;;2.47;2.28;;;;;;;35.90;30.63;91413.38;5032825;28;20091;-67
2022/09/07 09:51:32;;;;;;;2.50;2.30;;;;;;;33.25;31.96;91408.03;5032801;28;20034;-68
2022/09/07 09:54:29;;;;;;;2.63;2.42;;;;;;;31.35;33.70;91405.69;5032611;28;20030;-67
2022/09/07 09:56:55;;;;;;;2.78;2.35;;;;;;;31.37;34.94;91391.50;5032690;28;20034;-67
2022/09/07 09:59:28;;;;;;;2.83;2.53;;;;;;;33.07;34.27;91400.28;5032849;28;20033;-67
2022/09/07 10:01:54;;;;;;;2.83;2.17;;;;;;;32.74;33.35;91397.63;5032506;28;20026;-67
2022/09/07 10:04:23;;;;;;;6.10;2.13;;;;;;;32.46;33.12;91396.38;5032139;28;20079;-67
2022/09/07 10:07:07;;;;;;;3.88;2.60;;;;;;;34.25;33.01;91392.00;5032436;28;20033;-67
2022/09/07 10:09:36;;;;;;;2.45;2.25;;;;;;;34.18;32.81;91398.50;5032428;28;20495;-67
2022/09/07 10:12:03;;;;;;;4.70;2.30;;;;;;;34.87;31.46;91394.25;5032344;28;20074;-67
2022/09/07 10:14:40;;;;;;;2.30;2.10;;;;;;;35.22;31.15;91389.44;5032260;28;20033;-68
2022/09/07 10:17:23;;;;;;;2.55;2.35;;;;;;;36.08;30.39;91395.28;5032202;28;20506;-67
2022/09/07 10:19:48;;;;;;;2.15;1.98;;;;;;;35.97;28.75;91379.06;5031657;28;20037;-67
2022/09/07 10:22:21;;;;;;;2.30;2.05;;;;;;;36.88;28.70;91384.06;5032038;28;20048;-67
2022/09/07 10:24:46;;;;;;;3.25;2.10;;;;;;;36.45;28.46;91385.88;5032240;28;20278;-65
2022/09/07 10:27:35;;;;;;;2.20;2.00;;;;;;;33.11;32.09;91380.88;5031998;28;20045;-65
2022/09/07 10:30:08;;;;;;;4.07;3.20;;;;;;;32.52;32.45;91377.38;5032136;28;20033;-65
2022/09/07 10:32:55;;;;;;;2.47;2.28;;;;;;;32.35;33.33;91371.13;5014183;28;20296;-65
2022/09/07 10:35:28;;;;;;;2.50;2.20;;;;;;;34.18;32.47;91368.13;5031986;28;20053;-65
2022/09/07 10:38:05;;;;;;;3.20;2.47;;;;;;;35.85;30.91;91372.44;5031841;28;20053;-65
2022/09/07 10:40:38;;;;;;;2.88;2.33;;;;;;;37.19;29.93;91370.00;5032021;28;20391;-66
2022/09/07 10:43:21;;;;;;;2.30;2.10;;;;;;;37.61;29.41;91372.88;5031792;28;20037;-65
2022/09/07 10:46:04;;;;;;;3.42;2.60;;;;;;;35.08;29.23;91376.91;5031742;28;20041;-67
2022/09/07 10:48:57;;;;;;;1.77;1.67;;;;;;;32.36;32.33;91375.44;5031671;28;20039;-67
2022/09/07 10:51:28;;;;;;;2.78;1.80;;;;;;;31.97;33.79;91372.84;5031669;28;20017;-67
2022/09/07 10:54:39;;;;;;;2.63;2.20;;;;;;;32.86;31.96;91354.81;5031528;28;20029;-67
2022/09/07 10:57:31;;;;;;;2.42;2.00;;;;;;;32.76;32.32;91359.38;5031515;28;20025;-67
2022/09/07 11:00:15;;;;;;;3.93;2.30;;;;;;;32.01;33.41;91373.53;5031778;28;20044;-67
2022/09/07 11:02:50;;;;;;;3.28;2.40;;;;;;;30.36;35.27;91364.47;5031359;28;20025;-67
2022/09/07 11:05:52;;;;;;;2.85;2.55;;;;;;;31.48;34.25;91364.56;5031235;28;20116;-67
2022/09/07 11:08:36;;;;;;;2.72;2.30;;;;;;;31.63;33.50;91370.50;5031346;28;20025;-67
2022/09/07 11:11:10;;;;;;;2.15;1.95;;;;;;;32.71;34.14;91362.66;5031384;28;20494;-67
2022/09/07 11:13:40;;;;;;;2.13;1.83;;;;;;;32.55;31.84;91371.00;5031249;28;20041;-67
2022/09/07 11:16:20;;;;;;;2.72;2.00;;;;;;;31.71;33.88;91369.88;5031343;28;20068;-67
2022/09/07 11:18:57;;;;;;;2.92;2.25;;;;;;;32.57;32.01;91360.31;5031212;28;20411;-67
2022/09/07 11:21:28;;;;;;;2.83;2.10;;;;;;;32.20;32.97;91353.41;5031146;28;20032;-67
2022/09/07 11:24:21;;;;;;;3.00;2.20;;;;;;;33.38;32.00;91353.69;5031428;28;20029;-67
2022/09/07 11:27:01;;;;;;;2.90;2.40;;;;;;;34.44;32.49;91352.28;5000620;28;20103;-68
2022/09/07 11:29:32;;;;;;;2.33;1.83;;;;;;;34.76;30.67;91356.69;5030899;28;20033;-66
2022/09/07 11:32:26;;;;;;;3.50;2.08;;;;;;;33.42;31.81;91345.31;5030647;28;20025;-65
2022/09/07 11:34:55;;;;;;;1.80;1.70;;;;;;;34.67;30.26;91351.06;5000443;28;20128;-66
2022/09/07 11:37:28;;;;;;;2.10;1.90;;;;;;;32.59;31.66;91346.09;5031154;28;20384;-66
2022/09/07 11:40:06;;;;;;;3.60;2.28;;;;;;;31.46;33.54;91342.97;5031160;28;20033;-66
2022/09/07 11:42:47;;;;;;;2.10;1.90;;;;;;;32.33;33.84;91337.72;5030973;28;20049;-66
2022/09/07 11:45:18;;;;;;;6.25;2.08;;;;;;;33.54;30.68;91342.56;5030929;28;20502;-66
2022/09/07 11:47:54;;;;;;;1.90;1.80;;;;;;;35.28;28.48;91335.06;5031055;28;20021;-66
2022/09/07 11:50:23;;;;;;;2.15;1.90;;;;;;;33.88;30.49;91328.09;5030924;28;20087;-66
2022/09/07 11:53:16;;;;;;;2.83;2.03;;;;;;;33.41;31.37;91330.75;5030898;28;20029;-66